sensor_id;sensor_type;location;lat;lon;timestamp;P1;P2;P0
46885;PMS5003;32622;48.202;11.326;2023-09-12T00:01:57;18;16;
46885;PMS5003;32622;48.202;11.326;2023-09-12T00:03:59;17;15;
46885;PMS5003;32622;48.202;11.326;2023-09-12T00:06:02;17;15;
46885;PMS5003;32622;48.202;11.326;2023-09-12T00:08:05;16;15;
46885;PMS5003;32622;48.202;11.326;2023-09-12T00:10:07;16;15;
46885;PMS5003;32622;48.202;11.326;2023-09-12T00:12:12;16;15;
46885;PMS5003;32622;48.202;11.326;2023-09-12T00:14:16;15;13;
46885;PMS5003;32622;48.202;11.326;2023-09-12T00:16:19;15;13;
46885;PMS5003;32622;48.202;11.326;2023-09-12T00:18:21;16;14;
46885;PMS5003;32622;48.202;11.326;2023-09-12T00:20:23;16;14;
46885;PMS5003;32622;48.202;11.326;2023-09-12T00:22:25;16;14;
46885;PMS5003;32622;48.202;11.326;2023-09-12T00:24:27;16;14;
46885;PMS5003;32622;48.202;11.326;2023-09-12T00:26:30;16;14;
46885;PMS5003;32622;48.202;11.326;2023-09-12T00:28:32;16;14;
46885;PMS5003;32622;48.202;11.326;2023-09-12T00:30:34;16;14;
46885;PMS5003;32622;48.202;11.326;2023-09-12T00:32:36;14;14;
46885;PMS5003;32622;48.202;11.326;2023-09-12T00:34:38;14;14;
46885;PMS5003;32622;48.202;11.326;2023-09-12T00:36:40;14;14;
46885;PMS5003;32622;48.202;11.326;2023-09-12T00:38:42;13;13;
46885;PMS5003;32622;48.202;11.326;2023-09-12T00:40:44;13;13;
46885;PMS5003;32622;48.202;11.326;2023-09-12T00:42:46;13;13;
46885;PMS5003;32622;48.202;11.326;2023-09-12T00:44:49;13;13;
46885;PMS5003;32622;48.202;11.326;2023-09-12T00:46:51;13;13;
46885;PMS5003;32622;48.202;11.326;2023-09-12T00:48:55;13;13;
46885;PMS5003;32622;48.202;11.326;2023-09-12T00:51:00;13;13;
46885;PMS5003;32622;48.202;11.326;2023-09-12T00:53:03;13;13;
46885;PMS5003;32622;48.202;11.326;2023-09-12T00:55:06;13;13;
46885;PMS5003;32622;48.202;11.326;2023-09-12T00:57:08;14;14;
46885;PMS5003;32622;48.202;11.326;2023-09-12T00:59:11;14;14;
46885;PMS5003;32622;48.202;11.326;2023-09-12T01:01:14;14;14;
46885;PMS5003;32622;48.202;11.326;2023-09-12T01:03:17;14;14;
46885;PMS5003;32622;48.202;11.326;2023-09-12T01:05:19;14;14;
46885;PMS5003;32622;48.202;11.326;2023-09-12T01:07:23;14;14;
46885;PMS5003;32622;48.202;11.326;2023-09-12T01:09:25;14;14;
46885;PMS5003;32622;48.202;11.326;2023-09-12T01:11:27;14;14;
46885;PMS5003;32622;48.202;11.326;2023-09-12T01:13:30;14;14;
46885;PMS5003;32622;48.202;11.326;2023-09-12T01:15:32;16;16;
46885;PMS5003;32622;48.202;11.326;2023-09-12T01:17:34;16;16;
46885;PMS5003;32622;48.202;11.326;2023-09-12T01:19:36;16;16;
46885;PMS5003;32622;48.202;11.326;2023-09-12T01:21:41;16;16;
46885;PMS5003;32622;48.202;11.326;2023-09-12T01:23:59;16;16;
46885;PMS5003;32622;48.202;11.326;2023-09-12T01:26:16;16;16;
46885;PMS5003;32622;48.202;11.326;2023-09-12T01:28:26;15;15;
46885;PMS5003;32622;48.202;11.326;2023-09-12T01:30:32;15;15;
46885;PMS5003;32622;48.202;11.326;2023-09-12T01:32:36;15;15;
46885;PMS5003;32622;48.202;11.326;2023-09-12T01:34:40;16;15;
46885;PMS5003;32622;48.202;11.326;2023-09-12T01:36:42;17;16;
46885;PMS5003;32622;48.202;11.326;2023-09-12T01:38:44;17;16;
46885;PMS5003;32622;48.202;11.326;2023-09-12T01:40:48;18;17;
46885;PMS5003;32622;48.202;11.326;2023-09-12T01:42:51;18;17;
46885;PMS5003;32622;48.202;11.326;2023-09-12T01:44:55;18;17;
46885;PMS5003;32622;48.202;11.326;2023-09-12T01:47:00;19;17;
46885;PMS5003;32622;48.202;11.326;2023-09-12T01:49:06;19;17;
46885;PMS5003;32622;48.202;11.326;2023-09-12T01:51:10;19;17;
46885;PMS5003;32622;48.202;11.326;2023-09-12T01:53:12;18;17;
46885;PMS5003;32622;48.202;11.326;2023-09-12T01:55:15;18;17;
46885;PMS5003;32622;48.202;11.326;2023-09-12T01:57:19;18;17;
46885;PMS5003;32622;48.202;11.326;2023-09-12T01:59:22;19;18;
46885;PMS5003;32622;48.202;11.326;2023-09-12T02:01:24;19;18;
46885;PMS5003;32622;48.202;11.326;2023-09-12T02:03:26;19;18;
46885;PMS5003;32622;48.202;11.326;2023-09-12T02:05:28;19;17;
46885;PMS5003;32622;48.202;11.326;2023-09-12T02:07:31;19;17;
46885;PMS5003;32622;48.202;11.326;2023-09-12T02:09:35;19;17;
46885;PMS5003;32622;48.202;11.326;2023-09-12T02:11:37;20;17;
46885;PMS5003;32622;48.202;11.326;2023-09-12T02:13:40;20;17;
46885;PMS5003;32622;48.202;11.326;2023-09-12T02:15:42;20;17;
46885;PMS5003;32622;48.202;11.326;2023-09-12T02:17:44;20;17;
46885;PMS5003;32622;48.202;11.326;2023-09-12T02:19:46;20;17;
46885;PMS5003;32622;48.202;11.326;2023-09-12T02:21:49;20;17;
46885;PMS5003;32622;48.202;11.326;2023-09-12T02:23:51;21;18;
46885;PMS5003;32622;48.202;11.326;2023-09-12T02:25:53;21;18;
46885;PMS5003;32622;48.202;11.326;2023-09-12T02:27:55;21;18;
46885;PMS5003;32622;48.202;11.326;2023-09-12T02:29:57;21;18;
46885;PMS5003;32622;48.202;11.326;2023-09-12T02:31:59;21;18;
46885;PMS5003;32622;48.202;11.326;2023-09-12T02:34:02;21;18;
46885;PMS5003;32622;48.202;11.326;2023-09-12T02:36:04;20;18;
46885;PMS5003;32622;48.202;11.326;2023-09-12T02:38:07;20;18;
46885;PMS5003;32622;48.202;11.326;2023-09-12T02:40:09;20;18;
46885;PMS5003;32622;48.202;11.326;2023-09-12T02:42:12;19;17;
46885;PMS5003;32622;48.202;11.326;2023-09-12T02:44:14;19;17;
46885;PMS5003;32622;48.202;11.326;2023-09-12T02:46:16;19;17;
46885;PMS5003;32622;48.202;11.326;2023-09-12T02:48:18;19;17;
46885;PMS5003;32622;48.202;11.326;2023-09-12T02:50:20;19;17;
46885;PMS5003;32622;48.202;11.326;2023-09-12T02:52:22;19;17;
46885;PMS5003;32622;48.202;11.326;2023-09-12T02:54:25;18;16;
46885;PMS5003;32622;48.202;11.326;2023-09-12T02:56:27;18;16;
46885;PMS5003;32622;48.202;11.326;2023-09-12T02:58:29;18;16;
46885;PMS5003;32622;48.202;11.326;2023-09-12T03:00:31;17;15;
46885;PMS5003;32622;48.202;11.326;2023-09-12T03:02:33;17;15;
46885;PMS5003;32622;48.202;11.326;2023-09-12T03:04:35;17;15;
46885;PMS5003;32622;48.202;11.326;2023-09-12T03:06:38;17;16;
46885;PMS5003;32622;48.202;11.326;2023-09-12T03:08:40;17;16;
46885;PMS5003;32622;48.202;11.326;2023-09-12T03:10:42;17;16;
46885;PMS5003;32622;48.202;11.326;2023-09-12T03:12:44;17;17;
46885;PMS5003;32622;48.202;11.326;2023-09-12T03:14:46;17;17;
46885;PMS5003;32622;48.202;11.326;2023-09-12T03:16:48;17;17;
46885;PMS5003;32622;48.202;11.326;2023-09-12T03:18:50;16;16;
46885;PMS5003;32622;48.202;11.326;2023-09-12T03:20:52;16;16;
46885;PMS5003;32622;48.202;11.326;2023-09-12T03:22:54;16;16;
46885;PMS5003;32622;48.202;11.326;2023-09-12T03:24:57;15;15;
46885;PMS5003;32622;48.202;11.326;2023-09-12T03:26:59;15;15;
46885;PMS5003;32622;48.202;11.326;2023-09-12T03:29:01;15;15;
46885;PMS5003;32622;48.202;11.326;2023-09-12T03:31:05;16;16;
46885;PMS5003;32622;48.202;11.326;2023-09-12T03:33:09;16;16;
46885;PMS5003;32622;48.202;11.326;2023-09-12T03:35:11;16;16;
46885;PMS5003;32622;48.202;11.326;2023-09-12T03:37:13;16;16;
46885;PMS5003;32622;48.202;11.326;2023-09-12T03:39:15;16;16;
46885;PMS5003;32622;48.202;11.326;2023-09-12T03:41:17;16;16;
46885;PMS5003;32622;48.202;11.326;2023-09-12T03:43:19;16;16;
46885;PMS5003;32622;48.202;11.326;2023-09-12T03:45:21;16;16;
46885;PMS5003;32622;48.202;11.326;2023-09-12T03:47:24;16;16;
46885;PMS5003;32622;48.202;11.326;2023-09-12T03:49:26;16;16;
46885;PMS5003;32622;48.202;11.326;2023-09-12T03:51:29;16;16;
46885;PMS5003;32622;48.202;11.326;2023-09-12T03:53:31;16;16;
46885;PMS5003;32622;48.202;11.326;2023-09-12T03:55:33;17;17;
46885;PMS5003;32622;48.202;11.326;2023-09-12T03:57:35;17;17;
46885;PMS5003;32622;48.202;11.326;2023-09-12T03:59:37;17;17;
46885;PMS5003;32622;48.202;11.326;2023-09-12T04:01:39;17;17;
46885;PMS5003;32622;48.202;11.326;2023-09-12T04:03:41;17;17;
46885;PMS5003;32622;48.202;11.326;2023-09-12T04:05:45;17;17;
46885;PMS5003;32622;48.202;11.326;2023-09-12T04:07:48;17;17;
46885;PMS5003;32622;48.202;11.326;2023-09-12T04:09:50;17;17;
46885;PMS5003;32622;48.202;11.326;2023-09-12T04:11:52;17;17;
46885;PMS5003;32622;48.202;11.326;2023-09-12T04:13:54;16;16;
46885;PMS5003;32622;48.202;11.326;2023-09-12T04:15:56;16;16;
46885;PMS5003;32622;48.202;11.326;2023-09-12T04:17:59;16;16;
46885;PMS5003;32622;48.202;11.326;2023-09-12T04:20:01;16;16;
46885;PMS5003;32622;48.202;11.326;2023-09-12T04:22:03;16;16;
46885;PMS5003;32622;48.202;11.326;2023-09-12T04:24:06;16;16;
46885;PMS5003;32622;48.202;11.326;2023-09-12T04:26:09;16;16;
46885;PMS5003;32622;48.202;11.326;2023-09-12T04:28:11;16;16;
46885;PMS5003;32622;48.202;11.326;2023-09-12T04:30:13;16;16;
46885;PMS5003;32622;48.202;11.326;2023-09-12T04:32:15;15;15;
46885;PMS5003;32622;48.202;11.326;2023-09-12T04:34:17;15;15;
46885;PMS5003;32622;48.202;11.326;2023-09-12T04:36:20;15;15;
46885;PMS5003;32622;48.202;11.326;2023-09-12T04:38:22;16;16;
46885;PMS5003;32622;48.202;11.326;2023-09-12T04:40:24;16;16;
46885;PMS5003;32622;48.202;11.326;2023-09-12T04:42:26;16;16;
46885;PMS5003;32622;48.202;11.326;2023-09-12T04:44:28;16;16;
46885;PMS5003;32622;48.202;11.326;2023-09-12T04:46:30;16;16;
46885;PMS5003;32622;48.202;11.326;2023-09-12T04:48:32;16;16;
46885;PMS5003;32622;48.202;11.326;2023-09-12T04:50:39;15;15;
46885;PMS5003;32622;48.202;11.326;2023-09-12T04:52:42;15;15;
46885;PMS5003;32622;48.202;11.326;2023-09-12T04:54:45;15;15;
46885;PMS5003;32622;48.202;11.326;2023-09-12T04:56:47;15;15;
46885;PMS5003;32622;48.202;11.326;2023-09-12T04:58:49;15;15;
46885;PMS5003;32622;48.202;11.326;2023-09-12T05:00:51;15;15;
46885;PMS5003;32622;48.202;11.326;2023-09-12T05:02:55;16;16;
46885;PMS5003;32622;48.202;11.326;2023-09-12T05:04:57;16;16;
46885;PMS5003;32622;48.202;11.326;2023-09-12T05:06:59;16;16;
46885;PMS5003;32622;48.202;11.326;2023-09-12T05:09:01;15;15;
46885;PMS5003;32622;48.202;11.326;2023-09-12T05:11:03;15;15;
46885;PMS5003;32622;48.202;11.326;2023-09-12T05:13:06;15;15;
46885;PMS5003;32622;48.202;11.326;2023-09-12T05:15:08;15;15;
46885;PMS5003;32622;48.202;11.326;2023-09-12T05:17:10;15;15;
46885;PMS5003;32622;48.202;11.326;2023-09-12T05:19:13;15;15;
46885;PMS5003;32622;48.202;11.326;2023-09-12T05:21:15;16;16;
46885;PMS5003;32622;48.202;11.326;2023-09-12T05:23:17;16;16;
46885;PMS5003;32622;48.202;11.326;2023-09-12T05:25:19;16;16;
46885;PMS5003;32622;48.202;11.326;2023-09-12T05:27:21;17;17;
46885;PMS5003;32622;48.202;11.326;2023-09-12T05:29:23;17;17;
46885;PMS5003;32622;48.202;11.326;2023-09-12T05:31:26;17;17;
46885;PMS5003;32622;48.202;11.326;2023-09-12T05:33:28;17;17;
46885;PMS5003;32622;48.202;11.326;2023-09-12T05:35:30;17;17;
46885;PMS5003;32622;48.202;11.326;2023-09-12T05:37:32;17;17;
46885;PMS5003;32622;48.202;11.326;2023-09-12T05:39:34;17;17;
46885;PMS5003;32622;48.202;11.326;2023-09-12T05:41:36;17;17;
46885;PMS5003;32622;48.202;11.326;2023-09-12T05:43:38;17;17;
46885;PMS5003;32622;48.202;11.326;2023-09-12T05:45:40;17;16;
46885;PMS5003;32622;48.202;11.326;2023-09-12T05:47:43;17;16;
46885;PMS5003;32622;48.202;11.326;2023-09-12T05:49:45;17;16;
46885;PMS5003;32622;48.202;11.326;2023-09-12T05:51:47;17;16;
46885;PMS5003;32622;48.202;11.326;2023-09-12T05:53:49;17;16;
46885;PMS5003;32622;48.202;11.326;2023-09-12T05:55:51;17;16;
46885;PMS5003;32622;48.202;11.326;2023-09-12T05:57:53;17;16;
46885;PMS5003;32622;48.202;11.326;2023-09-12T05:59:55;17;16;
46885;PMS5003;32622;48.202;11.326;2023-09-12T06:01:58;17;16;
46885;PMS5003;32622;48.202;11.326;2023-09-12T06:04:00;16;16;
46885;PMS5003;32622;48.202;11.326;2023-09-12T06:06:02;16;16;
46885;PMS5003;32622;48.202;11.326;2023-09-12T06:08:05;16;16;
46885;PMS5003;32622;48.202;11.326;2023-09-12T06:10:07;17;16;
46885;PMS5003;32622;48.202;11.326;2023-09-12T06:12:10;17;16;
46885;PMS5003;32622;48.202;11.326;2023-09-12T06:14:12;17;16;
46885;PMS5003;32622;48.202;11.326;2023-09-12T06:16:14;17;16;
46885;PMS5003;32622;48.202;11.326;2023-09-12T06:18:16;17;16;
46885;PMS5003;32622;48.202;11.326;2023-09-12T06:20:19;17;16;
46885;PMS5003;32622;48.202;11.326;2023-09-12T06:22:21;16;16;
46885;PMS5003;32622;48.202;11.326;2023-09-12T06:24:23;16;16;
46885;PMS5003;32622;48.202;11.326;2023-09-12T06:26:25;16;16;
46885;PMS5003;32622;48.202;11.326;2023-09-12T06:28:28;16;16;
46885;PMS5003;32622;48.202;11.326;2023-09-12T06:30:31;16;16;
46885;PMS5003;32622;48.202;11.326;2023-09-12T06:32:33;16;16;
46885;PMS5003;32622;48.202;11.326;2023-09-12T06:34:35;17;16;
46885;PMS5003;32622;48.202;11.326;2023-09-12T06:36:38;17;16;
46885;PMS5003;32622;48.202;11.326;2023-09-12T06:38:40;17;16;
46885;PMS5003;32622;48.202;11.326;2023-09-12T06:40:42;17;16;
46885;PMS5003;32622;48.202;11.326;2023-09-12T06:42:44;17;16;
46885;PMS5003;32622;48.202;11.326;2023-09-12T06:44:46;17;16;
46885;PMS5003;32622;48.202;11.326;2023-09-12T06:46:48;18;17;
46885;PMS5003;32622;48.202;11.326;2023-09-12T06:48:50;18;17;
46885;PMS5003;32622;48.202;11.326;2023-09-12T06:50:53;18;17;
46885;PMS5003;32622;48.202;11.326;2023-09-12T06:52:56;18;17;
46885;PMS5003;32622;48.202;11.326;2023-09-12T06:54:58;18;17;
46885;PMS5003;32622;48.202;11.326;2023-09-12T06:57:00;18;17;
46885;PMS5003;32622;48.202;11.326;2023-09-12T06:59:03;18;17;
46885;PMS5003;32622;48.202;11.326;2023-09-12T07:01:05;18;17;
46885;PMS5003;32622;48.202;11.326;2023-09-12T07:03:08;18;17;
46885;PMS5003;32622;48.202;11.326;2023-09-12T07:05:10;20;18;
46885;PMS5003;32622;48.202;11.326;2023-09-12T07:07:12;20;18;
46885;PMS5003;32622;48.202;11.326;2023-09-12T07:09:14;20;18;
46885;PMS5003;32622;48.202;11.326;2023-09-12T07:11:17;20;19;
46885;PMS5003;32622;48.202;11.326;2023-09-12T07:13:19;20;19;
46885;PMS5003;32622;48.202;11.326;2023-09-12T07:15:21;20;19;
46885;PMS5003;32622;48.202;11.326;2023-09-12T07:17:23;20;18;
46885;PMS5003;32622;48.202;11.326;2023-09-12T07:19:25;20;18;
46885;PMS5003;32622;48.202;11.326;2023-09-12T07:21:27;20;18;
46885;PMS5003;32622;48.202;11.326;2023-09-12T07:23:29;21;19;
46885;PMS5003;32622;48.202;11.326;2023-09-12T07:25:35;21;19;
46885;PMS5003;32622;48.202;11.326;2023-09-12T07:27:39;21;19;
46885;PMS5003;32622;48.202;11.326;2023-09-12T07:29:41;20;19;
46885;PMS5003;32622;48.202;11.326;2023-09-12T07:31:43;20;19;
46885;PMS5003;32622;48.202;11.326;2023-09-12T07:33:45;20;19;
46885;PMS5003;32622;48.202;11.326;2023-09-12T07:35:48;21;19;
46885;PMS5003;32622;48.202;11.326;2023-09-12T07:37:50;21;19;
46885;PMS5003;32622;48.202;11.326;2023-09-12T07:39:52;21;19;
46885;PMS5003;32622;48.202;11.326;2023-09-12T07:41:54;21;19;
46885;PMS5003;32622;48.202;11.326;2023-09-12T07:43:56;21;19;
46885;PMS5003;32622;48.202;11.326;2023-09-12T07:45:59;21;19;
46885;PMS5003;32622;48.202;11.326;2023-09-12T07:48:01;19;18;
46885;PMS5003;32622;48.202;11.326;2023-09-12T07:50:04;19;18;
46885;PMS5003;32622;48.202;11.326;2023-09-12T07:52:07;19;18;
46885;PMS5003;32622;48.202;11.326;2023-09-12T07:54:09;18;18;
46885;PMS5003;32622;48.202;11.326;2023-09-12T07:56:11;18;18;
46885;PMS5003;32622;48.202;11.326;2023-09-12T07:58:13;18;18;
46885;PMS5003;32622;48.202;11.326;2023-09-12T08:00:16;18;17;
46885;PMS5003;32622;48.202;11.326;2023-09-12T08:02:19;18;17;
46885;PMS5003;32622;48.202;11.326;2023-09-12T08:04:21;18;17;
46885;PMS5003;32622;48.202;11.326;2023-09-12T08:06:23;18;18;
46885;PMS5003;32622;48.202;11.326;2023-09-12T08:08:25;18;18;
46885;PMS5003;32622;48.202;11.326;2023-09-12T08:10:27;18;18;
46885;PMS5003;32622;48.202;11.326;2023-09-12T08:12:29;18;18;
46885;PMS5003;32622;48.202;11.326;2023-09-12T08:14:31;18;18;
46885;PMS5003;32622;48.202;11.326;2023-09-12T08:16:33;18;18;
46885;PMS5003;32622;48.202;11.326;2023-09-12T08:18:36;18;18;
46885;PMS5003;32622;48.202;11.326;2023-09-12T08:20:38;18;18;
46885;PMS5003;32622;48.202;11.326;2023-09-12T08:22:40;18;18;
46885;PMS5003;32622;48.202;11.326;2023-09-12T08:24:42;18;18;
46885;PMS5003;32622;48.202;11.326;2023-09-12T08:26:44;18;18;
46885;PMS5003;32622;48.202;11.326;2023-09-12T08:28:46;18;18;
46885;PMS5003;32622;48.202;11.326;2023-09-12T08:30:49;18;18;
46885;PMS5003;32622;48.202;11.326;2023-09-12T08:32:51;18;18;
46885;PMS5003;32622;48.202;11.326;2023-09-12T08:34:53;18;18;
46885;PMS5003;32622;48.202;11.326;2023-09-12T08:36:55;18;18;
46885;PMS5003;32622;48.202;11.326;2023-09-12T08:38:57;18;18;
46885;PMS5003;32622;48.202;11.326;2023-09-12T08:41:00;18;18;
46885;PMS5003;32622;48.202;11.326;2023-09-12T08:43:02;19;19;
46885;PMS5003;32622;48.202;11.326;2023-09-12T08:45:05;19;19;
46885;PMS5003;32622;48.202;11.326;2023-09-12T08:47:10;19;19;
46885;PMS5003;32622;48.202;11.326;2023-09-12T08:49:13;20;20;
46885;PMS5003;32622;48.202;11.326;2023-09-12T08:51:15;20;20;
46885;PMS5003;32622;48.202;11.326;2023-09-12T08:53:18;20;20;
46885;PMS5003;32622;48.202;11.326;2023-09-12T08:55:20;19;19;
46885;PMS5003;32622;48.202;11.326;2023-09-12T08:57:22;19;19;
46885;PMS5003;32622;48.202;11.326;2023-09-12T08:59:24;19;19;
46885;PMS5003;32622;48.202;11.326;2023-09-12T09:01:27;19;19;
46885;PMS5003;32622;48.202;11.326;2023-09-12T09:03:32;19;19;
46885;PMS5003;32622;48.202;11.326;2023-09-12T09:05:35;19;19;
46885;PMS5003;32622;48.202;11.326;2023-09-12T09:07:39;18;18;
46885;PMS5003;32622;48.202;11.326;2023-09-12T09:09:42;18;18;
46885;PMS5003;32622;48.202;11.326;2023-09-12T09:11:44;18;18;
46885;PMS5003;32622;48.202;11.326;2023-09-12T09:13:46;18;18;
46885;PMS5003;32622;48.202;11.326;2023-09-12T09:15:49;18;18;
46885;PMS5003;32622;48.202;11.326;2023-09-12T09:18:10;18;18;
46885;PMS5003;32622;48.202;11.326;2023-09-12T09:20:16;18;18;
46885;PMS5003;32622;48.202;11.326;2023-09-12T09:22:23;18;18;
46885;PMS5003;32622;48.202;11.326;2023-09-12T09:24:25;18;18;
46885;PMS5003;32622;48.202;11.326;2023-09-12T09:26:40;18;18;
46885;PMS5003;32622;48.202;11.326;2023-09-12T09:28:44;18;18;
46885;PMS5003;32622;48.202;11.326;2023-09-12T09:30:46;18;18;
46885;PMS5003;32622;48.202;11.326;2023-09-12T09:32:50;17;17;
46885;PMS5003;32622;48.202;11.326;2023-09-12T09:34:55;17;17;
46885;PMS5003;32622;48.202;11.326;2023-09-12T09:36:59;17;17;
46885;PMS5003;32622;48.202;11.326;2023-09-12T09:39:06;18;18;
46885;PMS5003;32622;48.202;11.326;2023-09-12T09:41:08;18;18;
46885;PMS5003;32622;48.202;11.326;2023-09-12T09:43:11;18;18;
46885;PMS5003;32622;48.202;11.326;2023-09-12T09:45:13;16;16;
46885;PMS5003;32622;48.202;11.326;2023-09-12T09:47:15;16;16;
46885;PMS5003;32622;48.202;11.326;2023-09-12T09:49:20;16;16;
46885;PMS5003;32622;48.202;11.326;2023-09-12T09:51:23;16;16;
46885;PMS5003;32622;48.202;11.326;2023-09-12T09:53:25;16;16;
46885;PMS5003;32622;48.202;11.326;2023-09-12T09:55:28;18;18;
46885;PMS5003;32622;48.202;11.326;2023-09-12T09:57:30;20;18;
46885;PMS5003;32622;48.202;11.326;2023-09-12T09:59:38;20;19;
46885;PMS5003;32622;48.202;11.326;2023-09-12T10:01:40;20;18;
46885;PMS5003;32622;48.202;11.326;2023-09-12T10:03:44;20;19;
46885;PMS5003;32622;48.202;11.326;2023-09-12T10:05:47;21;20;
46885;PMS5003;32622;48.202;11.326;2023-09-12T10:07:52;21;20;
46885;PMS5003;32622;48.202;11.326;2023-09-12T10:09:57;23;21;
46885;PMS5003;32622;48.202;11.326;2023-09-12T10:12:02;22;20;
46885;PMS5003;32622;48.202;11.326;2023-09-12T10:14:06;22;20;
46885;PMS5003;32622;48.202;11.326;2023-09-12T10:16:08;22;19;
46885;PMS5003;32622;48.202;11.326;2023-09-12T10:18:19;22;19;
46885;PMS5003;32622;48.202;11.326;2023-09-12T10:20:29;22;19;
46885;PMS5003;32622;48.202;11.326;2023-09-12T10:22:40;22;20;
46885;PMS5003;32622;48.202;11.326;2023-09-12T10:24:51;22;20;
46885;PMS5003;32622;48.202;11.326;2023-09-12T10:26:55;22;20;
46885;PMS5003;32622;48.202;11.326;2023-09-12T10:28:58;21;19;
46885;PMS5003;32622;48.202;11.326;2023-09-12T10:31:02;21;19;
46885;PMS5003;32622;48.202;11.326;2023-09-12T10:33:06;21;19;
46885;PMS5003;32622;48.202;11.326;2023-09-12T10:35:09;21;19;
46885;PMS5003;32622;48.202;11.326;2023-09-12T10:37:11;21;19;
46885;PMS5003;32622;48.202;11.326;2023-09-12T10:39:17;21;19;
46885;PMS5003;32622;48.202;11.326;2023-09-12T10:41:22;21;18;
46885;PMS5003;32622;48.202;11.326;2023-09-12T10:43:26;21;18;
46885;PMS5003;32622;48.202;11.326;2023-09-12T10:45:30;21;18;
46885;PMS5003;32622;48.202;11.326;2023-09-12T10:47:33;21;18;
46885;PMS5003;32622;48.202;11.326;2023-09-12T10:49:36;21;18;
46885;PMS5003;32622;48.202;11.326;2023-09-12T10:51:39;21;18;
46885;PMS5003;32622;48.202;11.326;2023-09-12T10:53:46;21;18;
46885;PMS5003;32622;48.202;11.326;2023-09-12T10:55:57;21;18;
46885;PMS5003;32622;48.202;11.326;2023-09-12T10:58:01;21;18;
46885;PMS5003;32622;48.202;11.326;2023-09-12T11:00:11;19;17;
46885;PMS5003;32622;48.202;11.326;2023-09-12T11:02:30;20;17;
46885;PMS5003;32622;48.202;11.326;2023-09-12T11:04:34;21;18;
46885;PMS5003;32622;48.202;11.326;2023-09-12T11:06:37;20;18;
46885;PMS5003;32622;48.202;11.326;2023-09-12T11:08:40;20;18;
46885;PMS5003;32622;48.202;11.326;2023-09-12T11:10:42;20;18;
46885;PMS5003;32622;48.202;11.326;2023-09-12T11:12:44;19;18;
46885;PMS5003;32622;48.202;11.326;2023-09-12T11:15:05;20;19;
46885;PMS5003;32622;48.202;11.326;2023-09-12T11:17:20;19;18;
46885;PMS5003;32622;48.202;11.326;2023-09-12T11:19:23;18;17;
46885;PMS5003;32622;48.202;11.326;2023-09-12T11:21:31;21;18;
46885;PMS5003;32622;48.202;11.326;2023-09-12T11:23:33;20;18;
46885;PMS5003;32622;48.202;11.326;2023-09-12T11:25:36;20;17;
46885;PMS5003;32622;48.202;11.326;2023-09-12T11:27:44;20;17;
46885;PMS5003;32622;48.202;11.326;2023-09-12T11:29:47;20;17;
46885;PMS5003;32622;48.202;11.326;2023-09-12T11:31:54;20;18;
46885;PMS5003;32622;48.202;11.326;2023-09-12T11:34:00;20;18;
46885;PMS5003;32622;48.202;11.326;2023-09-12T11:36:02;20;18;
46885;PMS5003;32622;48.202;11.326;2023-09-12T11:38:09;19;18;
46885;PMS5003;32622;48.202;11.326;2023-09-12T11:40:16;19;18;
46885;PMS5003;32622;48.202;11.326;2023-09-12T11:42:23;19;18;
46885;PMS5003;32622;48.202;11.326;2023-09-12T11:44:26;20;18;
46885;PMS5003;32622;48.202;11.326;2023-09-12T11:46:29;20;18;
46885;PMS5003;32622;48.202;11.326;2023-09-12T11:48:31;20;18;
46885;PMS5003;32622;48.202;11.326;2023-09-12T11:50:34;20;19;
46885;PMS5003;32622;48.202;11.326;2023-09-12T11:52:37;20;19;
46885;PMS5003;32622;48.202;11.326;2023-09-12T11:54:40;20;19;
46885;PMS5003;32622;48.202;11.326;2023-09-12T11:56:42;21;19;
46885;PMS5003;32622;48.202;11.326;2023-09-12T11:58:44;21;19;
46885;PMS5003;32622;48.202;11.326;2023-09-12T12:00:47;21;19;
46885;PMS5003;32622;48.202;11.326;2023-09-12T12:02:51;22;20;
46885;PMS5003;32622;48.202;11.326;2023-09-12T12:04:53;22;20;
46885;PMS5003;32622;48.202;11.326;2023-09-12T12:06:55;22;20;
46885;PMS5003;32622;48.202;11.326;2023-09-12T12:08:58;22;20;
46885;PMS5003;32622;48.202;11.326;2023-09-12T12:11:00;22;20;
46885;PMS5003;32622;48.202;11.326;2023-09-12T12:13:03;22;20;
46885;PMS5003;32622;48.202;11.326;2023-09-12T12:15:06;20;20;
46885;PMS5003;32622;48.202;11.326;2023-09-12T12:17:11;20;20;
46885;PMS5003;32622;48.202;11.326;2023-09-12T12:19:13;20;20;
46885;PMS5003;32622;48.202;11.326;2023-09-12T12:21:16;20;20;
46885;PMS5003;32622;48.202;11.326;2023-09-12T12:23:18;20;20;
46885;PMS5003;32622;48.202;11.326;2023-09-12T12:25:20;20;20;
46885;PMS5003;32622;48.202;11.326;2023-09-12T12:27:22;20;20;
46885;PMS5003;32622;48.202;11.326;2023-09-12T12:29:24;20;20;
46885;PMS5003;32622;48.202;11.326;2023-09-12T12:31:26;20;20;
46885;PMS5003;32622;48.202;11.326;2023-09-12T12:33:29;19;19;
46885;PMS5003;32622;48.202;11.326;2023-09-12T12:35:32;19;19;
46885;PMS5003;32622;48.202;11.326;2023-09-12T12:37:35;19;19;
46885;PMS5003;32622;48.202;11.326;2023-09-12T12:39:38;19;19;
46885;PMS5003;32622;48.202;11.326;2023-09-12T12:41:44;19;19;
46885;PMS5003;32622;48.202;11.326;2023-09-12T12:43:46;19;19;
46885;PMS5003;32622;48.202;11.326;2023-09-12T12:45:52;19;19;
46885;PMS5003;32622;48.202;11.326;2023-09-12T12:47:56;19;19;
46885;PMS5003;32622;48.202;11.326;2023-09-12T12:49:59;19;19;
46885;PMS5003;32622;48.202;11.326;2023-09-12T12:52:02;18;18;
46885;PMS5003;32622;48.202;11.326;2023-09-12T12:54:04;19;19;
46885;PMS5003;32622;48.202;11.326;2023-09-12T12:56:07;19;19;
46885;PMS5003;32622;48.202;11.326;2023-09-12T12:58:09;18;18;
46885;PMS5003;32622;48.202;11.326;2023-09-12T13:00:12;18;18;
46885;PMS5003;32622;48.202;11.326;2023-09-12T13:02:15;18;18;
46885;PMS5003;32622;48.202;11.326;2023-09-12T13:04:18;18;18;
46885;PMS5003;32622;48.202;11.326;2023-09-12T13:06:20;18;18;
46885;PMS5003;32622;48.202;11.326;2023-09-12T13:08:22;18;18;
46885;PMS5003;32622;48.202;11.326;2023-09-12T13:10:25;18;18;
46885;PMS5003;32622;48.202;11.326;2023-09-12T13:12:28;18;18;
46885;PMS5003;32622;48.202;11.326;2023-09-12T13:14:30;18;18;
46885;PMS5003;32622;48.202;11.326;2023-09-12T13:16:32;17;17;
46885;PMS5003;32622;48.202;11.326;2023-09-12T13:18:34;17;17;
46885;PMS5003;32622;48.202;11.326;2023-09-12T13:20:37;17;17;
46885;PMS5003;32622;48.202;11.326;2023-09-12T13:22:39;17;17;
46885;PMS5003;32622;48.202;11.326;2023-09-12T13:24:41;17;17;